Time;durP1;ratioP1;P1;durP2;ratioP2;P2;SDS_P1;SDS_P2;PMS_P1;PMS_P2;Temp;Humidity;BMP_temperature;BMP_pressure;BME280_temperature;BME280_humidity;BME280_pressure;Samples;Min_cycle;Max_cycle;Signal;HPM_P1;HPM_P2
2022/03/02 00:02:47;;;;;;;6.10;4.57;;;20.90;65.60;;;;;;7868566;28;20209;-46
2022/03/02 00:06:33;;;;;;;7.15;5.55;;;20.80;65.50;;;;;;7869199;28;20646;-48
2022/03/02 00:10:19;;;;;;;7.43;5.20;;;20.80;65.50;;;;;;7868675;28;20631;-49
2022/03/02 00:14:05;;;;;;;8.13;5.13;;;20.80;65.50;;;;;;7868940;28;20177;-47
2022/03/02 00:17:51;;;;;;;8.40;5.53;;;20.80;65.50;;;;;;7869143;28;20177;-48
2022/03/02 00:21:37;;;;;;;7.05;5.10;;;20.70;65.40;;;;;;7874760;28;20307;-47
2022/03/02 00:25:23;;;;;;;6.45;4.70;;;20.70;65.40;;;;;;7874869;28;20213;-47
2022/03/02 00:29:08;;;;;;;7.70;5.15;;;20.60;65.40;;;;;;7874703;28;20701;-47
2022/03/02 00:32:57;;;;;;;7.05;4.95;;;20.60;65.40;;;;;;7874734;28;20204;-47
2022/03/02 00:36:42;;;;;;;12.25;5.13;;;20.60;65.40;;;;;;7874784;28;20786;-47
2022/03/02 00:40:29;;;;;;;6.43;5.10;;;20.60;65.30;;;;;;7874337;28;20540;-49
2022/03/02 00:44:14;;;;;;;7.40;5.50;;;20.50;65.30;;;;;;7874454;28;20670;-47
2022/03/02 00:48:01;;;;;;;8.40;4.90;;;20.50;65.30;;;;;;7874442;28;20542;-48
2022/03/02 00:51:46;;;;;;;8.07;4.80;;;20.50;65.30;;;;;;7874020;28;20731;-47
2022/03/02 00:55:33;;;;;;;6.72;4.85;;;20.50;65.30;;;;;;7874088;28;20581;-46
2022/03/02 00:59:18;;;;;;;7.07;5.03;;;20.50;65.30;;;;;;7873586;28;20590;-49
2022/03/02 01:03:05;;;;;;;6.47;4.80;;;20.40;65.20;;;;;;7873588;28;20279;-48
2022/03/02 01:06:50;;;;;;;6.78;4.70;;;20.40;65.20;;;;;;7874035;28;20261;-48
2022/03/02 01:10:36;;;;;;;8.27;5.07;;;20.40;65.30;;;;;;7873327;28;20193;-47
2022/03/02 01:14:22;;;;;;;6.43;4.75;;;20.30;65.20;;;;;;7873722;28;20177;-46
2022/03/02 01:18:07;;;;;;;6.82;4.72;;;20.30;65.20;;;;;;7873097;28;20239;-47
2022/03/02 01:21:53;;;;;;;6.85;5.18;;;20.30;65.20;;;;;;7872939;28;20229;-47
2022/03/02 01:25:38;;;;;;;7.35;4.80;;;20.30;65.20;;;;;;7873146;28;20233;-47
2022/03/02 01:29:24;;;;;;;8.27;4.90;;;20.30;65.10;;;;;;7872834;28;20182;-46
2022/03/02 01:33:10;;;;;;;7.57;5.30;;;20.30;65.20;;;;;;7872297;28;20193;-47
2022/03/02 01:36:55;;;;;;;7.30;4.38;;;20.20;65.10;;;;;;7872943;28;20193;-46
2022/03/02 01:40:41;;;;;;;8.27;4.80;;;20.20;65.10;;;;;;7872534;28;20275;-48
2022/03/02 01:44:27;;;;;;;7.18;5.07;;;20.20;65.10;;;;;;7872636;28;20682;-49
2022/03/02 01:48:12;;;;;;;7.25;4.97;;;20.10;65.00;;;;;;7872630;28;20173;-47
2022/03/02 01:51:58;;;;;;;6.68;4.72;;;20.10;65.00;;;;;;7872125;28;20189;-47
2022/03/02 01:55:44;;;;;;;7.00;4.50;;;20.10;65.00;;;;;;7872359;28;20181;-47
2022/03/02 01:59:29;;;;;;;6.65;4.53;;;20.10;65.00;;;;;;7872122;28;20181;-47
2022/03/02 02:03:15;;;;;;;6.55;4.93;;;20.10;65.00;;;;;;7872061;28;20215;-49
2022/03/02 02:07:00;;;;;;;7.38;5.05;;;20.10;65.00;;;;;;7872182;28;20177;-47
2022/03/02 02:10:46;;;;;;;6.15;4.40;;;20.00;64.90;;;;;;7871879;28;20193;-50
2022/03/02 02:14:31;;;;;;;9.30;4.50;;;20.00;64.90;;;;;;7871960;28;20212;-46
2022/03/02 02:18:17;;;;;;;5.72;4.20;;;20.00;64.80;;;;;;7871742;28;20272;-47
2022/03/02 02:22:02;;;;;;;7.53;4.75;;;20.00;64.80;;;;;;7871255;28;20202;-47
2022/03/02 02:25:48;;;;;;;6.18;4.28;;;20.00;64.90;;;;;;7871396;28;20211;-47
2022/03/02 02:29:36;;;;;;;6.90;4.93;;;19.90;64.80;;;;;;7871099;28;20177;-47
2022/03/02 02:33:22;;;;;;;8.23;4.80;;;19.90;64.70;;;;;;7871139;28;20209;-49
2022/03/02 02:37:08;;;;;;;7.47;4.80;;;19.90;64.80;;;;;;7871416;28;20188;-46
2022/03/02 02:40:54;;;;;;;6.68;4.80;;;19.80;64.70;;;;;;7870645;28;20205;-46
2022/03/02 02:44:39;;;;;;;7.18;4.97;;;19.80;64.80;;;;;;7869734;28;20208;-49
2022/03/02 02:48:25;;;;;;;6.97;4.90;;;19.80;64.80;;;;;;7870818;28;20173;-50
2022/03/02 02:52:10;;;;;;;8.35;5.00;;;19.80;64.80;;;;;;7870238;28;20198;-47
2022/03/02 02:55:57;;;;;;;7.43;4.82;;;19.70;64.70;;;;;;7870437;28;20658;-48
2022/03/02 02:59:42;;;;;;;6.22;4.88;;;19.70;64.80;;;;;;7870128;28;20227;-47
2022/03/02 03:03:28;;;;;;;8.10;5.13;;;19.70;64.70;;;;;;7870001;28;20205;-47
2022/03/02 03:07:13;;;;;;;5.75;4.43;;;19.70;64.70;;;;;;7870233;28;20169;-47
2022/03/02 03:10:59;;;;;;;8.60;5.25;;;19.60;65.70;;;;;;7869994;28;20196;-47
2022/03/02 03:14:44;;;;;;;6.57;4.72;;;19.60;64.50;;;;;;7870023;28;20181;-46
2022/03/02 03:18:30;;;;;;;6.32;4.60;;;19.60;64.60;;;;;;7869907;28;20682;-47
2022/03/02 03:22:15;;;;;;;7.10;5.13;;;19.60;64.60;;;;;;7869451;28;20205;-46
2022/03/02 03:26:01;;;;;;;7.07;4.85;;;19.60;64.60;;;;;;7869623;28;20217;-47
2022/03/02 03:29:46;;;;;;;7.78;4.80;;;19.60;64.40;;;;;;7870033;28;20185;-46
2022/03/02 03:33:32;;;;;;;8.02;4.95;;;19.50;64.80;;;;;;7869537;28;20240;-47
2022/03/02 03:37:17;;;;;;;6.57;4.53;;;19.50;64.80;;;;;;7869496;28;20567;-46
2022/03/02 03:41:03;;;;;;;7.13;4.38;;;19.50;64.80;;;;;;7869121;28;20686;-48
2022/03/02 03:44:49;;;;;;;6.63;4.82;;;19.40;64.60;;;;;;7869306;28;20235;-48
2022/03/02 03:48:35;;;;;;;8.60;4.53;;;19.40;64.80;;;;;;7869354;28;20188;-47
2022/03/02 03:52:20;;;;;;;6.38;4.60;;;19.40;64.60;;;;;;7869061;28;20201;-47
2022/03/02 03:56:06;;;;;;;8.55;5.38;;;19.40;64.80;;;;;;7868865;28;20185;-47
2022/03/02 03:59:51;;;;;;;7.05;4.63;;;19.40;64.50;;;;;;7868973;28;20181;-48
2022/03/02 04:03:37;;;;;;;6.25;4.03;;;19.40;64.60;;;;;;7866968;28;20221;-47
2022/03/02 04:07:22;;;;;;;8.52;5.32;;;19.40;64.60;;;;;;7868656;28;20173;-47
2022/03/02 04:11:08;;;;;;;6.28;4.63;;;19.40;64.70;;;;;;7868267;28;20278;-47
2022/03/02 04:14:55;;;;;;;8.80;4.82;;;19.40;64.60;;;;;;7868354;28;20201;-47
2022/03/02 04:18:41;;;;;;;12.25;4.93;;;19.40;64.50;;;;;;7868369;28;20185;-47
2022/03/02 04:22:27;;;;;;;9.20;5.15;;;19.40;64.50;;;;;;7868109;28;20216;-47
2022/03/02 04:26:13;;;;;;;6.40;4.93;;;19.40;64.30;;;;;;7868417;28;20205;-48
2022/03/02 04:29:59;;;;;;;10.00;6.00;;;19.50;64.00;;;;;;7868493;28;20240;-47
2022/03/02 04:33:45;;;;;;;14.27;6.43;;;19.40;63.70;;;;;;7868690;28;20197;-47
2022/03/02 04:37:30;;;;;;;8.85;5.97;;;19.50;62.80;;;;;;7868483;28;20185;-48
2022/03/02 04:41:16;;;;;;;12.60;6.53;;;19.50;61.70;;;;;;7837279;28;20644;-46
2022/03/02 04:45:02;;;;;;;12.68;6.35;;;19.50;61.40;;;;;;7836728;28;20214;-47
2022/03/02 04:48:47;;;;;;;11.20;6.35;;;19.50;61.30;;;;;;7838044;28;20201;-47
2022/03/02 04:52:33;;;;;;;9.95;6.13;;;19.50;61.20;;;;;;7836593;28;20727;-46
2022/03/02 04:56:19;;;;;;;10.50;6.05;;;19.50;61.10;;;;;;7837069;28;20304;-47
2022/03/02 05:00:11;;;;;;;10.15;6.07;;;19.50;60.90;;;;;;7836496;28;20225;-47
2022/03/02 05:03:57;;;;;;;12.23;6.85;;;19.50;60.80;;;;;;7836252;28;20573;-47
2022/03/02 05:07:44;;;;;;;10.23;6.57;;;19.50;60.80;;;;;;7841324;28;20202;-47
2022/03/02 05:11:29;;;;;;;11.10;6.15;;;19.60;60.80;;;;;;7842425;28;20205;-47
2022/03/02 05:15:16;;;;;;;9.73;6.72;;;19.50;60.80;;;;;;7842811;28;20178;-47
2022/03/02 05:19:02;;;;;;;10.02;6.28;;;19.50;60.70;;;;;;7842184;28;20182;-48
2022/03/02 05:22:49;;;;;;;8.23;6.30;;;19.60;60.70;;;;;;7841386;28;20202;-47
2022/03/02 05:26:35;;;;;;;8.15;6.35;;;19.60;60.60;;;;;;7842053;28;20186;-47
2022/03/02 05:30:20;;;;;;;12.15;6.82;;;19.60;60.60;;;;;;7841647;28;20177;-46
2022/03/02 05:34:06;;;;;;;12.55;7.15;;;19.60;60.50;;;;;;7842140;28;20557;-47
2022/03/02 05:37:51;;;;;;;13.38;6.80;;;19.60;60.60;;;;;;7841692;28;20212;-46
2022/03/02 05:41:38;;;;;;;18.77;7.95;;;19.60;60.80;;;;;;7853790;28;20215;-47
2022/03/02 05:45:23;;;;;;;12.10;7.40;;;19.70;60.80;;;;;;7869586;28;20232;-46
2022/03/02 05:49:09;;;;;;;18.95;7.80;;;19.70;60.70;;;;;;7872126;28;20181;-45
2022/03/02 05:52:55;;;;;;;16.25;8.50;;;19.70;60.70;;;;;;7856414;28;20205;-47
2022/03/02 05:56:41;;;;;;;16.05;8.27;;;19.70;60.70;;;;;;7850024;28;20177;-46
2022/03/02 06:00:26;;;;;;;15.43;8.55;;;19.80;60.70;;;;;;7872121;28;20215;-46
2022/03/02 06:04:12;;;;;;;18.65;9.52;;;19.80;60.70;;;;;;7871439;28;20209;-45
2022/03/02 06:07:58;;;;;;;17.13;9.95;;;19.90;60.70;;;;;;7870657;28;20193;-46
2022/03/02 06:11:43;;;;;;;15.25;9.00;;;19.80;60.60;;;;;;7871741;28;20197;-47
2022/03/02 06:15:30;;;;;;;16.17;9.00;;;19.90;61.20;;;;;;7871641;28;20540;-47
2022/03/02 06:19:16;;;;;;;22.05;8.93;;;19.90;61.10;;;;;;7870872;28;20192;-46
2022/03/02 06:23:02;;;;;;;14.82;8.77;;;19.90;61.00;;;;;;7870906;28;20300;-47
2022/03/02 06:26:47;;;;;;;16.77;8.57;;;19.90;61.30;;;;;;7871430;28;20184;-46
2022/03/02 06:30:33;;;;;;;16.05;9.10;;;20.00;61.70;;;;;;7860677;28;20185;-47
2022/03/02 06:34:19;;;;;;;15.73;9.30;;;19.90;61.10;;;;;;7840216;28;20189;-47
2022/03/02 06:38:04;;;;;;;19.60;9.52;;;19.90;60.80;;;;;;7840021;28;20205;-48
2022/03/02 06:42:09;;;;;;;21.90;8.50;;;19.90;60.60;;;;;;7839384;28;20281;-47
2022/03/02 06:45:59;;;;;;;15.85;9.10;;;19.90;61.20;;;;;;7839083;28;20645;-47
2022/03/02 06:49:59;;;;;;;19.33;9.38;;;19.90;60.70;;;;;;7839354;28;20209;-48
2022/03/02 06:53:45;;;;;;;21.40;9.27;;;19.90;60.50;;;;;;7852128;28;20209;-47
2022/03/02 06:57:30;;;;;;;29.38;10.43;;;19.90;60.40;;;;;;7853008;28;20190;-46
2022/03/02 07:01:25;;;;;;;34.65;10.32;;;19.80;58.60;;;;;;7838918;28;20205;-47
2022/03/02 07:05:10;;;;;;;27.60;10.27;;;19.80;59.30;;;;;;7838580;28;20213;-46
2022/03/02 07:08:56;;;;;;;23.23;11.05;;;19.80;59.50;;;;;;7838928;28;20170;-47
2022/03/02 07:12:42;;;;;;;17.48;10.15;;;19.90;59.70;;;;;;7839044;28;20198;-48
2022/03/02 07:16:28;;;;;;;22.45;9.05;;;19.90;60.00;;;;;;7839339;28;20213;-46
2022/03/02 07:20:14;;;;;;;27.98;9.48;;;20.00;62.00;;;;;;7837838;28;20713;-47
2022/03/02 07:24:06;;;;;;;20.08;7.93;;;20.20;62.60;;;;;;7841830;28;20666;-47
2022/03/02 07:27:54;;;;;;;28.40;8.43;;;20.30;63.00;;;;;;7864711;28;20197;-46
2022/03/02 07:31:42;;;;;;;25.73;9.00;;;20.40;63.00;;;;;;7838241;28;20190;-46
2022/03/02 07:35:31;;;;;;;21.13;8.52;;;20.50;63.00;;;;;;7838467;28;20185;-47
2022/03/02 07:39:17;;;;;;;15.23;7.43;;;20.70;63.10;;;;;;7838287;28;20720;-47
2022/03/02 07:43:03;;;;;;;21.10;7.55;;;20.80;63.20;;;;;;7837921;28;20561;-47
2022/03/02 07:46:48;;;;;;;17.85;7.45;;;20.90;63.40;;;;;;7835818;28;20178;-47
2022/03/02 07:50:34;;;;;;;16.10;7.07;;;20.90;63.30;;;;;;7838610;28;20196;-47
2022/03/02 07:54:21;;;;;;;17.08;7.40;;;21.10;63.40;;;;;;7838028;28;20643;-47
2022/03/02 07:58:07;;;;;;;17.65;7.35;;;21.10;63.20;;;;;;7837829;28;20244;-46
2022/03/02 08:01:53;;;;;;;24.50;13.95;;;21.20;63.40;;;;;;7836994;28;20214;-47
2022/03/02 08:05:39;;;;;;;35.45;15.95;;;21.30;63.10;;;;;;7837186;28;20296;-47
2022/03/02 08:09:25;;;;;;;27.50;12.40;;;21.30;63.20;;;;;;7837679;28;20235;-47
2022/03/02 08:13:12;;;;;;;29.85;12.90;;;21.40;63.20;;;;;;7837607;28;20194;-45
2022/03/02 08:16:57;;;;;;;20.95;12.70;;;21.40;63.10;;;;;;7837764;28;20524;-46
2022/03/02 08:20:48;;;;;;;31.85;12.48;;;21.40;63.10;;;;;;7837306;28;20206;-46
2022/03/02 08:24:41;;;;;;;31.23;12.23;;;21.40;63.20;;;;;;7836978;28;20292;-45
2022/03/02 08:28:30;;;;;;;21.15;10.55;;;21.50;63.10;;;;;;7837705;28;20170;-46
2022/03/02 08:32:17;;;;;;;15.45;9.77;;;21.50;63.00;;;;;;7837200;28;20194;-47
2022/03/02 08:36:03;;;;;;;23.75;10.45;;;21.60;63.20;;;;;;7837400;28;20182;-47
2022/03/02 08:39:49;;;;;;;13.50;9.30;;;21.70;63.10;;;;;;7838769;28;20186;-46
2022/03/02 08:43:37;;;;;;;17.77;9.60;;;21.80;63.00;;;;;;7842987;28;20220;-47
2022/03/02 08:47:23;;;;;;;17.77;9.43;;;21.90;63.00;;;;;;7843014;28;20205;-47
2022/03/02 08:51:08;;;;;;;22.15;10.27;;;22.10;63.00;;;;;;7842741;28;20221;-47
2022/03/02 08:54:55;;;;;;;12.70;8.95;;;22.10;63.00;;;;;;7843112;28;20197;-47
2022/03/02 08:58:42;;;;;;;12.20;8.27;;;22.30;62.80;;;;;;7843459;28;20208;-46
2022/03/02 09:02:29;;;;;;;12.40;8.63;;;22.40;62.80;;;;;;7842321;28;20205;-47
2022/03/02 09:06:19;;;;;;;15.10;8.27;;;22.50;62.70;;;;;;7842388;28;20209;-47
2022/03/02 09:10:05;;;;;;;12.35;8.30;;;22.50;62.60;;;;;;7842514;28;20181;-47
2022/03/02 09:13:51;;;;;;;17.80;8.02;;;22.60;62.80;;;;;;7842129;28;20699;-48
2022/03/02 09:17:36;;;;;;;14.63;7.75;;;22.60;62.70;;;;;;7842371;28;20520;-48
2022/03/02 09:21:22;;;;;;;16.17;8.23;;;22.60;62.90;;;;;;7842125;28;20201;-47
2022/03/02 09:25:08;;;;;;;11.38;7.28;;;22.70;63.20;;;;;;7841851;28;20206;-47
2022/03/02 09:28:54;;;;;;;13.25;7.00;;;22.70;63.30;;;;;;7842146;28;20555;-47
2022/03/02 09:32:41;;;;;;;12.32;7.32;;;22.70;63.30;;;;;;7857519;28;20201;-53
2022/03/02 09:36:27;;;;;;;16.35;7.45;;;22.80;63.50;;;;;;7841668;28;20706;-46
2022/03/02 09:40:28;;;;;;;14.95;7.28;;;22.80;63.40;;;;;;7843911;28;20201;-46
2022/03/02 09:44:16;;;;;;;21.90;6.88;;;22.90;63.50;;;;;;7872295;28;20681;-46
2022/03/02 09:48:03;;;;;;;23.02;7.57;;;22.90;63.60;;;;;;7869753;28;20165;-46
2022/03/02 09:52:03;;;;;;;32.28;7.47;;;23.00;63.90;;;;;;7863027;28;20243;-47
2022/03/02 09:55:48;;;;;;;21.80;8.60;;;23.00;64.00;;;;;;7841379;28;20769;-46
2022/03/02 09:59:38;;;;;;;24.10;6.80;;;23.10;64.10;;;;;;7840914;28;20208;-48
2022/03/02 10:03:27;;;;;;;21.63;6.95;;;23.10;64.10;;;;;;7840505;28;20714;-47
2022/03/02 10:07:29;;;;;;;21.20;6.22;;;23.10;64.20;;;;;;7840908;28;20180;-45
2022/03/02 10:11:26;;;;;;;22.08;6.53;;;23.10;64.20;;;;;;7842208;28;20251;-46
2022/03/02 10:15:13;;;;;;;12.30;5.97;;;23.10;64.20;;;;;;7870040;28;20185;-47
2022/03/02 10:19:00;;;;;;;20.65;6.70;;;23.10;64.20;;;;;;7870730;28;20651;-46
2022/03/02 10:22:46;;;;;;;14.05;5.82;;;23.10;64.30;;;;;;7871086;28;20293;-47
2022/03/02 10:26:49;;;;;;;18.15;6.65;;;23.10;64.30;;;;;;7871163;28;20205;-46
2022/03/02 10:30:40;;;;;;;14.77;6.45;;;23.00;64.20;;;;;;7871189;28;20184;-47
2022/03/02 10:34:25;;;;;;;16.15;6.18;;;23.00;64.40;;;;;;7871561;28;20184;-46
2022/03/02 10:38:16;;;;;;;16.63;6.35;;;23.00;64.30;;;;;;7871221;28;20261;-48
2022/03/02 10:42:05;;;;;;;14.93;5.90;;;23.00;64.30;;;;;;7870542;28;20220;-47
2022/03/02 10:45:51;;;;;;;13.40;5.72;;;23.00;64.20;;;;;;7870147;28;20271;-47
2022/03/02 10:49:37;;;;;;;17.15;5.97;;;22.90;64.10;;;;;;7870537;28;20247;-47
2022/03/02 10:53:26;;;;;;;9.60;5.40;;;22.90;64.30;;;;;;7870361;28;20264;-47
2022/03/02 10:57:13;;;;;;;12.55;5.30;;;22.90;64.50;;;;;;7868902;28;20181;-46
2022/03/02 11:01:00;;;;;;;11.10;5.60;;;22.80;64.20;;;;;;7869932;28;20201;-47
2022/03/02 11:04:48;;;;;;;17.45;6.40;;;22.80;64.10;;;;;;7868936;28;20244;-46
2022/03/02 11:08:35;;;;;;;10.80;5.53;;;22.80;64.00;;;;;;7869896;28;20177;-47
2022/03/02 11:12:22;;;;;;;16.83;5.82;;;22.80;64.00;;;;;;7869781;28;20192;-47
2022/03/02 11:16:08;;;;;;;12.07;6.38;;;22.70;63.90;;;;;;7869748;28;20169;-47
2022/03/02 11:19:54;;;;;;;11.40;5.07;;;22.70;63.90;;;;;;7869466;28;20188;-47
2022/03/02 11:23:49;;;;;;;10.15;5.53;;;22.60;63.80;;;;;;7839184;28;20214;-49
2022/03/02 11:27:40;;;;;;;16.02;5.70;;;22.60;63.80;;;;;;7837983;28;20186;-47
2022/03/02 11:31:31;;;;;;;9.10;5.05;;;22.60;63.80;;;;;;7838341;28;20679;-47
2022/03/02 11:35:18;;;;;;;13.38;5.93;;;22.50;63.70;;;;;;7838395;28;20177;-47
2022/03/02 11:39:06;;;;;;;13.38;6.10;;;22.60;63.80;;;;;;7837842;28;20174;-49
2022/03/02 11:42:52;;;;;;;10.10;5.32;;;22.60;63.80;;;;;;7837794;28;20624;-47
2022/03/02 11:46:45;;;;;;;11.70;5.28;;;22.60;63.80;;;;;;7837350;28;20202;-48
2022/03/02 11:50:31;;;;;;;10.35;4.80;;;22.70;63.80;;;;;;7837842;28;20174;-47
2022/03/02 11:54:17;;;;;;;11.77;5.38;;;22.70;63.70;;;;;;7848272;28;20186;-47
2022/03/02 11:58:02;;;;;;;10.27;5.38;;;22.80;63.60;;;;;;7851389;28;20200;-48
2022/03/02 12:01:50;;;;;;;10.50;5.75;;;22.80;63.50;;;;;;7837221;28;20303;-47
2022/03/02 12:05:36;;;;;;;9.95;5.85;;;22.90;63.70;;;;;;7836978;28;20211;-47
2022/03/02 12:09:25;;;;;;;10.40;5.20;;;22.90;63.80;;;;;;7836544;28;20178;-47
2022/03/02 12:13:18;;;;;;;12.38;4.88;;;23.00;64.00;;;;;;7839361;28;20244;-47
2022/03/02 12:17:12;;;;;;;12.48;5.35;;;23.10;64.30;;;;;;7840588;28;20192;-47
2022/03/02 12:20:58;;;;;;;9.40;4.72;;;23.20;63.90;;;;;;7843990;28;20530;-46
2022/03/02 12:24:46;;;;;;;15.25;5.03;;;23.30;64.00;;;;;;7843982;28;20202;-46
2022/03/02 12:28:31;;;;;;;12.23;4.63;;;23.30;64.00;;;;;;7843851;28;20186;-47
2022/03/02 12:32:17;;;;;;;21.10;6.15;;;23.40;64.00;;;;;;7843850;28;20679;-46
2022/03/02 12:36:06;;;;;;;12.50;4.80;;;23.50;64.20;;;;;;7843460;28;20174;-47
2022/03/02 12:39:52;;;;;;;16.60;5.57;;;23.50;64.00;;;;;;7843445;28;20248;-46
2022/03/02 12:43:39;;;;;;;15.85;4.85;;;23.60;63.80;;;;;;7843262;28;20201;-46
2022/03/02 12:47:29;;;;;;;19.13;6.03;;;23.60;63.90;;;;;;7842392;28;20755;-47
2022/03/02 12:51:17;;;;;;;12.93;4.75;;;23.60;63.80;;;;;;7869376;28;20605;-47
2022/03/02 12:55:04;;;;;;;9.38;5.20;;;23.60;63.80;;;;;;7854185;28;20182;-47
2022/03/02 12:58:51;;;;;;;12.13;4.95;;;23.60;63.60;;;;;;7842353;28;20198;-47
2022/03/02 13:02:38;;;;;;;14.63;4.97;;;23.60;63.50;;;;;;7842576;28;20218;-48
2022/03/02 13:06:31;;;;;;;19.77;4.97;;;23.60;63.50;;;;;;7865993;28;20217;-48
2022/03/02 13:10:21;;;;;;;8.00;4.32;;;23.70;63.60;;;;;;7842522;28;20178;-47
2022/03/02 13:14:32;;;;;;;14.30;4.90;;;23.70;63.50;;;;;;7842455;28;20166;-48
2022/03/02 13:18:19;;;;;;;14.68;4.85;;;23.80;63.50;;;;;;7841921;28;20243;-47
2022/03/02 13:22:05;;;;;;;10.10;5.22;;;23.90;63.40;;;;;;7842112;28;20202;-46
2022/03/02 13:26:00;;;;;;;12.05;4.65;;;23.90;63.30;;;;;;7841203;28;20258;-47
2022/03/02 13:29:55;;;;;;;7.22;4.40;;;24.00;63.30;;;;;;7850269;28;20540;-46
2022/03/02 13:33:59;;;;;;;8.13;4.35;;;24.10;63.20;;;;;;7851016;28;20205;-47
2022/03/02 13:38:00;;;;;;;9.02;4.57;;;24.10;63.10;;;;;;7841928;28;20201;-47
2022/03/02 13:41:49;;;;;;;7.07;4.07;;;24.20;63.20;;;;;;7870682;28;20673;-46
2022/03/02 13:45:43;;;;;;;11.93;4.43;;;24.20;63.10;;;;;;7872820;28;20200;-47
2022/03/02 13:49:50;;;;;;;9.50;4.53;;;24.20;63.10;;;;;;7872090;28;20213;-47
2022/03/02 13:53:38;;;;;;;7.65;4.55;;;24.30;63.10;;;;;;7854043;28;20209;-47
2022/03/02 13:57:29;;;;;;;9.77;4.18;;;24.30;63.00;;;;;;7860595;28;20194;-47
2022/03/02 14:01:27;;;;;;;6.55;4.22;;;24.30;63.00;;;;;;7871527;28;20697;-47
2022/03/02 14:05:13;;;;;;;6.47;4.20;;;24.40;63.10;;;;;;7842717;28;20224;-46
2022/03/02 14:08:59;;;;;;;11.65;3.88;;;24.40;63.10;;;;;;7840988;28;20174;-47
2022/03/02 14:12:56;;;;;;;9.20;4.55;;;24.40;63.10;;;;;;7840702;28;20320;-47
2022/03/02 14:16:54;;;;;;;10.63;3.90;;;24.40;63.20;;;;;;7871318;28;20326;-48
2022/03/02 14:20:39;;;;;;;8.20;4.55;;;24.30;63.10;;;;;;7849812;28;20220;-47
2022/03/02 14:24:30;;;;;;;6.78;3.88;;;24.30;63.20;;;;;;7848560;28;20611;-47
2022/03/02 14:28:16;;;;;;;6.78;3.83;;;24.10;63.40;;;;;;7856766;28;20561;-47
2022/03/02 14:32:10;;;;;;;7.45;4.00;;;24.00;62.70;;;;;;7839975;28;20270;-48
2022/03/02 14:35:55;;;;;;;7.00;4.20;;;24.00;62.80;;;;;;7840253;28;20184;-48
2022/03/02 14:40:07;;;;;;;8.68;4.10;;;24.00;62.80;;;;;;7838717;28;20539;-47
2022/03/02 14:43:52;;;;;;;7.45;3.83;;;24.00;63.00;;;;;;7838559;28;20205;-47
2022/03/02 14:47:40;;;;;;;5.00;3.40;;;24.00;63.00;;;;;;7839467;28;20201;-47
2022/03/02 14:51:26;;;;;;;8.60;4.30;;;24.00;63.00;;;;;;7839372;28;20221;-47
2022/03/02 14:55:20;;;;;;;5.97;4.25;;;24.00;63.10;;;;;;7841543;28;20289;-48
2022/03/02 14:59:11;;;;;;;5.43;3.60;;;24.00;63.20;;;;;;7860052;28;20185;-48
2022/03/02 15:02:58;;;;;;;6.00;3.95;;;23.90;63.10;;;;;;7856158;28;20677;-48
2022/03/02 15:06:44;;;;;;;5.00;3.58;;;23.90;63.20;;;;;;7865551;28;20210;-47
2022/03/02 15:10:30;;;;;;;6.10;3.70;;;23.90;63.20;;;;;;7844873;28;20182;-47
2022/03/02 15:18:22;;;;;;;13.48;4.32;;;23.80;63.30;;;;;;7857407;28;20189;-48
2022/03/02 15:22:13;;;;;;;6.10;3.83;;;23.70;63.20;;;;;;7869415;28;20735;-47
2022/03/02 15:25:59;;;;;;;6.68;3.50;;;23.70;63.40;;;;;;7870186;28;20244;-46
2022/03/02 15:29:46;;;;;;;15.18;4.35;;;23.60;63.40;;;;;;7867919;28;20192;-47
2022/03/02 15:33:31;;;;;;;16.13;4.15;;;23.60;63.50;;;;;;7866351;28;20236;-47
2022/03/02 15:37:27;;;;;;;8.80;3.47;;;23.60;63.70;;;;;;7834509;28;20197;-46
2022/03/02 15:41:21;;;;;;;20.38;4.57;;;23.60;63.80;;;;;;7836463;28;20220;-47
2022/03/02 15:45:20;;;;;;;12.68;4.30;;;23.50;63.70;;;;;;7843856;28;20729;-47
2022/03/02 15:49:05;;;;;;;21.67;4.03;;;23.50;63.90;;;;;;7862665;28;20173;-46
2022/03/02 15:53:02;;;;;;;9.93;3.63;;;23.50;64.10;;;;;;7868180;28;20347;-45
2022/03/02 15:56:54;;;;;;;8.45;4.15;;;23.40;64.10;;;;;;7868354;28;20176;-47
2022/03/02 16:00:48;;;;;;;11.02;4.35;;;23.40;64.20;;;;;;7844860;28;20208;-47
2022/03/02 16:04:34;;;;;;;18.02;4.32;;;23.40;64.20;;;;;;7861153;28;20236;-45
2022/03/02 16:08:25;;;;;;;12.82;4.30;;;23.40;64.10;;;;;;7847949;28;20193;-46
2022/03/02 16:12:10;;;;;;;16.17;4.35;;;23.40;64.10;;;;;;7837400;28;20204;-46
2022/03/02 16:16:00;;;;;;;10.23;3.95;;;23.40;64.00;;;;;;7837727;28;20182;-45
2022/03/02 16:19:46;;;;;;;11.70;3.92;;;23.40;63.80;;;;;;7863578;28;20177;-46
2022/03/02 16:23:36;;;;;;;17.58;4.95;;;23.40;63.70;;;;;;7847166;28;20217;-45
2022/03/02 16:27:24;;;;;;;19.35;4.70;;;23.50;63.70;;;;;;7839967;28;20169;-46
2022/03/02 16:31:12;;;;;;;12.18;4.10;;;23.50;63.70;;;;;;7850366;28;20271;-46
2022/03/02 16:34:58;;;;;;;12.60;4.00;;;23.50;63.70;;;;;;7849468;28;20189;-46
2022/03/02 16:38:45;;;;;;;13.00;4.15;;;23.50;63.60;;;;;;7850566;28;20671;-46
2022/03/02 16:42:32;;;;;;;11.25;3.78;;;23.50;63.70;;;;;;7852218;28;20186;-46
2022/03/02 16:46:17;;;;;;;13.15;4.18;;;23.50;63.70;;;;;;7854953;28;20228;-46
2022/03/02 16:50:07;;;;;;;7.70;3.95;;;23.50;63.90;;;;;;7867923;28;20184;-46
2022/03/02 16:53:53;;;;;;;10.10;3.85;;;23.40;63.80;;;;;;7862277;28;20225;-46
2022/03/02 16:57:38;;;;;;;13.75;4.40;;;23.40;64.80;;;;;;7851659;28;20694;-46
2022/03/02 17:01:24;;;;;;;10.13;4.32;;;23.40;64.00;;;;;;7850367;28;20271;-46
2022/03/02 17:05:11;;;;;;;10.27;3.70;;;23.40;63.80;;;;;;7855556;28;20601;-46
2022/03/02 17:08:57;;;;;;;8.20;3.78;;;23.40;63.70;;;;;;7854829;28;21217;-47
2022/03/02 17:12:43;;;;;;;6.47;3.95;;;23.40;64.10;;;;;;7854462;28;20558;-46
2022/03/02 17:16:28;;;;;;;11.32;3.95;;;23.40;63.80;;;;;;7856270;28;20261;-46
2022/03/02 17:20:14;;;;;;;14.18;4.10;;;23.40;63.80;;;;;;7855833;28;20737;-48
2022/03/02 17:23:59;;;;;;;14.52;4.00;;;23.40;63.80;;;;;;7855978;28;20201;-48
2022/03/02 17:27:45;;;;;;;10.52;4.38;;;23.40;64.00;;;;;;7856618;28;20190;-46
2022/03/02 17:31:32;;;;;;;7.78;3.70;;;23.40;64.10;;;;;;7854355;28;20189;-46
2022/03/02 17:35:17;;;;;;;8.73;4.10;;;23.40;64.10;;;;;;7840658;28;20265;-46
2022/03/02 17:39:07;;;;;;;10.82;4.35;;;23.40;64.10;;;;;;7841280;28;20190;-46
2022/03/02 17:42:52;;;;;;;12.55;4.15;;;23.30;63.90;;;;;;7863381;28;20197;-46
2022/03/02 17:46:38;;;;;;;8.68;3.90;;;23.30;64.00;;;;;;7869956;28;20216;-46
2022/03/02 17:50:23;;;;;;;7.90;4.30;;;23.30;63.80;;;;;;7872122;28;20173;-46
2022/03/02 17:54:13;;;;;;;14.63;4.60;;;23.20;63.80;;;;;;7872389;28;20200;-46
2022/03/02 17:57:59;;;;;;;11.07;4.13;;;23.20;63.80;;;;;;7872929;28;20180;-45
2022/03/02 18:01:45;;;;;;;34.95;4.82;;;23.20;63.80;;;;;;7860172;28;20221;-46
2022/03/02 18:05:30;;;;;;;15.82;5.15;;;23.20;63.70;;;;;;7839919;28;20210;-45
2022/03/02 18:09:17;;;;;;;20.63;4.57;;;23.10;64.00;;;;;;7838722;28;20257;-45
2022/03/02 18:13:02;;;;;;;17.98;4.65;;;23.10;64.50;;;;;;7839285;28;20233;-46
2022/03/02 18:16:48;;;;;;;23.50;4.72;;;23.10;65.00;;;;;;7839862;28;20197;-47
2022/03/02 18:20:33;;;;;;;21.67;4.80;;;23.10;65.20;;;;;;7839103;28;20170;-46
2022/03/02 18:24:19;;;;;;;23.65;4.57;;;23.10;65.20;;;;;;7859428;28;20197;-46
2022/03/02 18:28:04;;;;;;;16.05;4.40;;;23.10;65.20;;;;;;7870459;28;20177;-46
2022/03/02 18:31:50;;;;;;;17.42;4.40;;;23.10;65.30;;;;;;7870051;28;20201;-46
2022/03/02 18:35:36;;;;;;;14.90;4.75;;;23.10;65.30;;;;;;7869870;28;20274;-46
2022/03/02 18:39:27;;;;;;;17.52;4.50;;;23.00;65.30;;;;;;7869972;28;20240;-46
2022/03/02 18:43:13;;;;;;;17.88;5.45;;;23.00;65.40;;;;;;7851857;28;20210;-46
2022/03/02 18:46:59;;;;;;;8.85;4.75;;;22.90;65.40;;;;;;7850353;28;20268;-46
2022/03/02 18:50:45;;;;;;;15.00;4.50;;;23.00;65.40;;;;;;7842278;28;20252;-46
2022/03/02 18:54:37;;;;;;;11.40;4.28;;;22.90;65.40;;;;;;7861079;28;20185;-46
2022/03/02 18:58:23;;;;;;;10.90;4.47;;;22.90;65.50;;;;;;7850798;28;20231;-46
2022/03/02 19:02:08;;;;;;;12.82;4.70;;;22.80;65.40;;;;;;7837184;28;20224;-46
2022/03/02 19:05:54;;;;;;;13.43;4.60;;;22.80;65.50;;;;;;7838111;28;20205;-47
2022/03/02 19:09:41;;;;;;;13.23;5.30;;;22.80;65.70;;;;;;7837584;28;20244;-47
2022/03/02 19:13:26;;;;;;;15.73;4.53;;;22.70;65.60;;;;;;7837762;28;20244;-46
2022/03/02 19:17:13;;;;;;;14.55;5.25;;;22.70;65.70;;;;;;7841064;28;20182;-46
2022/03/02 19:21:01;;;;;;;9.63;4.88;;;22.70;65.70;;;;;;7837253;28;20234;-46
2022/03/02 19:24:49;;;;;;;13.13;4.70;;;22.70;65.80;;;;;;7836932;28;20247;-46
2022/03/02 19:28:39;;;;;;;10.10;5.18;;;22.70;65.70;;;;;;7837649;28;20182;-47
2022/03/02 19:32:27;;;;;;;15.52;5.63;;;22.60;65.40;;;;;;7838519;28;20202;-48
2022/03/02 19:36:13;;;;;;;19.35;5.05;;;22.60;65.20;;;;;;7837140;28;20182;-46
2022/03/02 19:40:01;;;;;;;16.58;5.70;;;22.50;65.30;;;;;;7837210;28;20174;-48